createdAt,value
2019-02-20T00:00:32.552Z,26.17
2019-02-20T00:03:01.223Z,23.15
2019-02-20T00:05:29.073Z,24.75
2019-02-20T00:07:56.927Z,23.87
2019-02-20T00:10:24.935Z,25.68
2019-02-20T00:12:52.844Z,23.18
2019-02-20T00:15:21.018Z,23.98
2019-02-20T00:17:48.881Z,22.37
2019-02-20T00:20:16.778Z,25.12
2019-02-20T00:22:44.637Z,24.65
2019-02-20T00:25:12.492Z,23.47
2019-02-20T00:27:40.330Z,19.67
2019-02-20T00:30:08.224Z,22.73
2019-02-20T00:32:36.059Z,20.30
2019-02-20T00:35:04.091Z,22.48
2019-02-20T00:37:31.913Z,22.52
2019-02-20T00:39:59.902Z,21.27
2019-02-20T00:42:27.714Z,19.30
2019-02-20T00:45:30.474Z,21.00
2019-02-20T00:48:23.858Z,19.02
2019-02-20T00:50:56.243Z,17.95
2019-02-20T00:53:31.495Z,19.55
2019-02-20T00:55:59.373Z,18.27
2019-02-20T00:58:27.198Z,21.35
2019-02-20T01:00:55.042Z,22.02
2019-02-20T01:03:22.873Z,18.00
2019-02-20T01:05:50.719Z,20.12
2019-02-20T01:08:18.681Z,22.40
2019-02-20T01:10:46.607Z,18.15
2019-02-20T01:13:14.572Z,19.77
2019-02-20T01:15:42.414Z,19.10
2019-02-20T01:18:10.290Z,19.95
2019-02-20T01:20:38.143Z,20.37
2019-02-20T01:23:06.020Z,23.20
2019-02-20T01:25:33.861Z,24.10
2019-02-20T01:28:01.819Z,23.73
2019-02-20T01:30:29.629Z,20.77
2019-02-20T01:32:57.459Z,24.92
2019-02-20T01:35:25.299Z,25.30
2019-02-20T01:37:53.251Z,21.42
2019-02-20T01:40:21.068Z,18.67
2019-02-20T01:42:48.930Z,20.30
2019-02-20T01:45:16.757Z,19.85
2019-02-20T01:47:44.567Z,21.75
2019-02-20T01:50:12.529Z,18.45
2019-02-20T01:52:40.623Z,18.62
2019-02-20T01:55:08.548Z,18.25
2019-02-20T01:57:36.391Z,18.48
2019-02-20T02:00:05.803Z,20.00
2019-02-20T02:02:33.654Z,19.17
2019-02-20T02:05:01.627Z,18.23
2019-02-20T02:07:29.466Z,16.62
2019-02-20T02:09:57.319Z,18.48
2019-02-20T02:12:25.188Z,18.77
2019-02-20T02:14:53.076Z,18.15
2019-02-20T02:17:20.882Z,20.50
2019-02-20T02:19:48.725Z,18.48
2019-02-20T02:22:16.557Z,16.93
2019-02-20T02:24:44.354Z,21.80
2019-02-20T02:27:12.538Z,20.25
2019-02-20T02:29:40.357Z,19.15
2019-02-20T02:32:08.197Z,21.52
2019-02-20T02:34:36.022Z,21.60
2019-02-20T02:37:03.981Z,21.30
2019-02-20T02:39:31.793Z,18.75
2019-02-20T02:41:59.646Z,19.98
2019-02-20T02:44:27.489Z,16.95
2019-02-20T02:46:55.315Z,19.00
2019-02-20T02:49:23.206Z,17.07
2019-02-20T02:51:51.012Z,17.42
2019-02-20T02:54:18.822Z,16.23
2019-02-20T02:56:46.674Z,16.35
2019-02-20T02:59:14.798Z,16.70
2019-02-20T03:01:42.636Z,18.95
2019-02-20T03:04:10.467Z,17.05
2019-02-20T03:06:38.336Z,17.23
2019-02-20T03:09:06.518Z,17.15
2019-02-20T03:11:34.623Z,16.12
2019-02-20T03:14:02.484Z,21.05
2019-02-20T03:16:30.426Z,19.95
2019-02-20T03:18:58.259Z,17.20
2019-02-20T03:21:26.104Z,18.52
2019-02-20T03:23:53.933Z,19.73
2019-02-20T03:26:22.075Z,19.55
2019-02-20T03:28:49.917Z,20.37
2019-02-20T03:31:17.738Z,21.77
2019-02-20T03:33:45.613Z,16.97
2019-02-20T03:36:13.453Z,16.05
2019-02-20T03:38:41.323Z,16.10
2019-02-20T03:41:09.137Z,15.25
2019-02-20T03:43:36.967Z,15.20
2019-02-20T03:46:04.830Z,15.78
2019-02-20T03:48:32.723Z,15.65
2019-02-20T03:51:00.526Z,15.75
2019-02-20T03:53:28.476Z,15.83
2019-02-20T03:55:57.056Z,16.65
2019-02-20T03:58:24.856Z,15.25
2019-02-20T04:00:52.699Z,18.57
2019-02-20T04:03:20.888Z,19.77
2019-02-20T04:05:48.742Z,20.40
2019-02-20T04:08:16.585Z,15.85
2019-02-20T04:10:44.730Z,18.80
2019-02-20T04:13:12.594Z,18.90
2019-02-20T04:15:40.452Z,21.35
2019-02-20T04:18:08.299Z,16.27
2019-02-20T04:20:36.208Z,19.62
2019-02-20T04:23:04.008Z,20.23
2019-02-20T04:25:31.825Z,40.08
2019-02-20T04:27:59.662Z,45.92
2019-02-20T04:30:27.512Z,26.80
2019-02-20T04:32:55.317Z,19.05
2019-02-20T04:35:23.225Z,16.15
2019-02-20T04:37:51.086Z,17.02
2019-02-20T04:40:18.946Z,15.40
2019-02-20T04:42:46.822Z,15.60
2019-02-20T04:45:14.745Z,17.42
2019-02-20T04:47:42.617Z,17.25
2019-02-20T04:50:10.432Z,24.45
2019-02-20T04:52:38.324Z,21.95
2019-02-20T04:55:06.235Z,23.22
2019-02-20T04:57:34.089Z,22.37
2019-02-20T05:00:01.940Z,21.70
2019-02-20T05:02:29.870Z,24.25
2019-02-20T05:04:57.827Z,22.82
2019-02-20T05:07:25.660Z,22.70
2019-02-20T05:09:53.510Z,23.55
2019-02-20T05:12:21.309Z,21.55
2019-02-20T05:14:49.477Z,22.17
2019-02-20T05:17:17.299Z,22.40
2019-02-20T05:19:45.129Z,23.38
2019-02-20T05:22:12.999Z,24.15
2019-02-20T05:24:41.164Z,24.50
2019-02-20T05:27:09.049Z,22.40
2019-02-20T05:29:36.911Z,22.32
2019-02-20T05:32:04.769Z,22.90
2019-02-20T05:34:32.614Z,22.52
2019-02-20T05:37:00.433Z,20.52
2019-02-20T05:39:28.400Z,21.50
2019-02-20T05:41:56.278Z,26.82
2019-02-20T05:44:24.133Z,25.72
2019-02-20T05:46:51.975Z,27.42
2019-02-20T05:49:19.786Z,25.35
2019-02-20T05:51:47.633Z,24.20
2019-02-20T05:54:15.465Z,23.15
2019-02-20T05:56:43.318Z,39.13
2019-02-20T05:59:11.193Z,22.67
2019-02-20T06:01:39.017Z,20.45
2019-02-20T06:04:09.606Z,21.30
2019-02-20T06:06:37.453Z,21.07
2019-02-20T06:09:05.648Z,19.70
2019-02-20T06:11:33.465Z,22.32
2019-02-20T06:14:01.345Z,24.00
2019-02-20T06:16:29.185Z,29.35
2019-02-20T06:18:57.023Z,24.00
2019-02-20T06:21:24.867Z,21.25
2019-02-20T06:23:52.702Z,23.95
2019-02-20T06:26:20.613Z,22.30
2019-02-20T06:28:48.449Z,24.15
2019-02-20T06:31:16.587Z,21.30
2019-02-20T06:33:44.494Z,19.32
2019-02-20T06:36:12.358Z,21.02
2019-02-20T06:38:40.197Z,20.77
2019-02-20T06:41:08.034Z,22.13
2019-02-20T06:43:35.927Z,22.55
2019-02-20T06:46:03.794Z,22.90
2019-02-20T06:48:31.617Z,20.65
2019-02-20T06:50:59.545Z,24.60
2019-02-20T06:53:27.397Z,23.77
2019-02-20T06:55:55.227Z,22.70
2019-02-20T06:58:23.053Z,21.45
2019-02-20T07:00:50.914Z,23.40
2019-02-20T07:03:18.773Z,22.07
2019-02-20T07:06:30.839Z,23.75
2019-02-20T07:09:31.663Z,23.40
2019-02-20T07:12:44.065Z,23.10
2019-02-20T07:16:22.133Z,21.48
2019-02-20T07:19:35.213Z,22.05
2019-02-20T07:23:19.183Z,21.80
2019-02-20T07:26:38.349Z,33.10
2019-02-20T07:29:44.260Z,29.80
2019-02-20T07:32:15.955Z,20.92
2019-02-20T07:34:43.801Z,18.40
2019-02-20T07:37:11.807Z,22.32
2019-02-20T07:39:39.641Z,23.10
2019-02-20T07:42:07.461Z,21.77
2019-02-20T07:44:35.339Z,22.10
2019-02-20T07:47:03.182Z,22.07
2019-02-20T07:49:31.023Z,21.05
2019-02-20T07:51:58.868Z,23.15
2019-02-20T07:54:26.731Z,27.27
2019-02-20T07:56:54.593Z,26.07
2019-02-20T07:59:22.801Z,23.57
2019-02-20T08:01:51.234Z,27.15
2019-02-20T08:04:19.045Z,23.02
2019-02-20T08:06:46.948Z,21.20
2019-02-20T08:09:14.848Z,26.40
2019-02-20T08:11:42.761Z,23.92
2019-02-20T08:14:10.614Z,23.40
2019-02-20T08:16:38.441Z,20.70
2019-02-20T08:19:06.295Z,24.47
2019-02-20T08:21:34.137Z,22.42
2019-02-20T08:24:02.081Z,22.02
2019-02-20T08:26:29.924Z,26.93
2019-02-20T08:28:57.753Z,27.25
2019-02-20T08:31:25.650Z,25.20
2019-02-20T08:33:53.512Z,23.87
2019-02-20T08:36:21.629Z,24.98
2019-02-20T08:38:49.448Z,25.75
2019-02-20T08:41:17.266Z,20.20
2019-02-20T08:43:45.112Z,20.88
2019-02-20T08:46:12.948Z,22.50
2019-02-20T08:48:41.067Z,23.25
2019-02-20T08:51:08.891Z,26.57
2019-02-20T08:53:36.794Z,33.67
2019-02-20T08:56:04.727Z,26.62
2019-02-20T08:58:32.558Z,27.93
2019-02-20T09:01:00.418Z,35.35
2019-02-20T09:03:28.263Z,27.82
2019-02-20T09:05:56.124Z,20.80
2019-02-20T09:08:23.973Z,22.90
2019-02-20T09:10:51.783Z,31.90
2019-02-20T09:13:19.623Z,22.17
2019-02-20T09:15:47.437Z,30.48
2019-02-20T09:18:15.292Z,22.00
2019-02-20T09:20:43.112Z,24.05
2019-02-20T09:23:10.963Z,35.60
2019-02-20T09:25:41.598Z,24.72
2019-02-20T09:28:09.018Z,34.40
2019-02-20T09:30:36.856Z,35.70
2019-02-20T09:33:04.730Z,28.38
2019-02-20T09:35:32.741Z,37.88
2019-02-20T09:38:00.604Z,30.97
2019-02-20T09:40:28.478Z,39.80
2019-02-20T09:42:56.318Z,74.50
2019-02-20T09:45:24.137Z,53.52
2019-02-20T09:47:51.989Z,48.10
2019-02-20T09:50:19.827Z,26.82
2019-02-20T09:52:52.337Z,34.30
2019-02-20T09:55:17.428Z,43.87
2019-02-20T09:57:45.318Z,31.40
2019-02-20T10:00:14.173Z,24.63
2019-02-20T10:02:42.018Z,27.95
2019-02-20T10:05:10.016Z,26.00
2019-02-20T10:07:37.952Z,24.87
2019-02-20T10:10:06.659Z,22.77
2019-02-20T10:12:34.542Z,23.05
2019-02-20T10:15:02.721Z,27.65
2019-02-20T10:17:30.571Z,21.75
2019-02-20T10:19:58.415Z,25.85
2019-02-20T10:22:26.210Z,17.50
2019-02-20T10:24:54.090Z,31.95
2019-02-20T10:27:21.928Z,17.85
2019-02-20T10:29:49.798Z,19.23
2019-02-20T10:32:17.680Z,18.75
2019-02-20T10:34:45.542Z,23.87
2019-02-20T10:37:13.389Z,15.83
2019-02-20T10:39:41.277Z,18.40
2019-02-20T10:42:09.162Z,20.88
2019-02-20T10:44:37.016Z,16.05
2019-02-20T10:47:05.128Z,18.10
2019-02-20T10:49:33.000Z,17.02
2019-02-20T10:52:01.352Z,17.05
2019-02-20T10:54:29.171Z,16.82
2019-02-20T10:56:57.037Z,14.55
2019-02-20T10:59:24.883Z,13.50
2019-02-20T11:01:52.759Z,15.58
2019-02-20T11:04:20.608Z,17.70
2019-02-20T11:06:48.458Z,14.35
2019-02-20T11:09:16.427Z,19.20
2019-02-20T11:11:44.281Z,13.45
2019-02-20T11:14:12.118Z,13.60
2019-02-20T11:16:40.581Z,15.35
2019-02-20T11:19:08.463Z,14.98
2019-02-20T11:21:36.314Z,19.92
2019-02-20T11:24:04.169Z,15.20
2019-02-20T11:26:32.098Z,11.38
2019-02-20T11:28:59.982Z,9.80
2019-02-20T11:31:27.833Z,9.75
2019-02-20T11:33:55.671Z,9.33
2019-02-20T11:36:23.540Z,10.78
2019-02-20T11:38:51.361Z,10.80
2019-02-20T11:41:19.201Z,9.85
2019-02-20T11:43:47.065Z,9.93
2019-02-20T11:46:14.895Z,10.50
2019-02-20T11:48:42.713Z,9.53
2019-02-20T11:51:10.823Z,10.35
2019-02-20T11:53:38.758Z,12.23
2019-02-20T11:56:06.634Z,11.30
2019-02-20T11:58:34.455Z,10.85
2019-02-20T12:01:02.913Z,10.78
2019-02-20T12:03:30.761Z,10.32
2019-02-20T12:05:58.624Z,10.00
2019-02-20T12:08:26.543Z,9.38
2019-02-20T12:10:54.951Z,8.48
2019-02-20T12:13:22.883Z,10.38
2019-02-20T12:15:50.710Z,9.13
2019-02-20T12:18:18.637Z,8.90
2019-02-20T12:20:46.456Z,9.58
2019-02-20T12:23:14.344Z,9.18
2019-02-20T12:25:42.182Z,7.95
2019-02-20T12:28:10.152Z,9.30
2019-02-20T12:30:38.179Z,9.10
2019-02-20T12:33:06.142Z,9.73
2019-02-20T12:35:34.095Z,7.60
2019-02-20T12:38:02.538Z,6.60
2019-02-20T12:40:30.708Z,6.80
2019-02-20T12:42:58.572Z,6.83
2019-02-20T12:45:26.528Z,6.92
2019-02-20T12:47:54.437Z,5.90
2019-02-20T12:50:22.304Z,6.42
2019-02-20T12:52:50.216Z,5.47
2019-02-20T12:55:18.077Z,6.00
2019-02-20T12:57:45.910Z,5.60
2019-02-20T13:00:14.907Z,6.35
2019-02-20T13:02:42.783Z,5.30
2019-02-20T13:05:10.985Z,5.50
2019-02-20T13:07:38.809Z,5.42
2019-02-20T13:10:07.149Z,6.25
2019-02-20T13:12:35.061Z,5.70
2019-02-20T13:15:02.951Z,5.45
2019-02-20T13:17:30.831Z,5.60
2019-02-20T13:19:58.703Z,5.30
2019-02-20T13:22:26.554Z,5.42
2019-02-20T13:24:54.454Z,6.03
2019-02-20T13:27:23.134Z,5.22
2019-02-20T13:29:51.085Z,5.83
2019-02-20T13:32:18.952Z,5.67
2019-02-20T13:34:46.842Z,5.92
2019-02-20T13:37:14.750Z,5.30
2019-02-20T13:39:42.626Z,5.20
2019-02-20T13:42:10.508Z,5.85
2019-02-20T13:44:38.635Z,5.55
2019-02-20T13:47:06.513Z,5.58
2019-02-20T13:49:34.343Z,6.30
2019-02-20T13:52:02.219Z,5.92
2019-02-20T13:54:30.136Z,5.70
2019-02-20T13:57:01.766Z,5.37
2019-02-20T13:59:28.158Z,6.28
2019-02-20T14:01:56.214Z,6.25
2019-02-20T14:04:24.052Z,6.37
2019-02-20T14:06:52.157Z,6.20
2019-02-20T14:09:20.035Z,6.03
2019-02-20T14:11:47.844Z,5.78
2019-02-20T14:14:16.688Z,6.25
2019-02-20T14:16:44.761Z,5.92
2019-02-20T14:19:12.893Z,5.30
2019-02-20T14:21:40.860Z,5.95
2019-02-20T14:24:08.699Z,6.08
2019-02-20T14:26:36.637Z,6.15
2019-02-20T14:29:04.501Z,6.35
2019-02-20T14:31:32.403Z,6.20
2019-02-20T14:34:00.311Z,5.78
2019-02-20T14:36:28.641Z,5.72
2019-02-20T14:38:56.545Z,5.62
2019-02-20T14:41:24.427Z,6.50
2019-02-20T14:43:52.304Z,6.12
2019-02-20T14:46:20.155Z,5.85
2019-02-20T14:48:48.083Z,6.20
2019-02-20T14:51:15.999Z,6.12
2019-02-20T14:53:44.252Z,6.35
2019-02-20T14:56:12.667Z,6.75
2019-02-20T14:58:40.502Z,8.00
2019-02-20T15:01:08.383Z,6.12
2019-02-20T15:03:36.253Z,5.97
2019-02-20T15:06:04.105Z,6.62
2019-02-20T15:08:31.963Z,6.83
2019-02-20T15:11:00.241Z,6.55
2019-02-20T15:13:28.070Z,7.72
2019-02-20T15:15:55.986Z,7.67
2019-02-20T15:18:23.880Z,6.58
2019-02-20T15:20:51.822Z,6.35
2019-02-20T15:23:19.679Z,6.28
2019-02-20T15:25:47.561Z,6.30
2019-02-20T15:28:15.447Z,6.12
2019-02-20T15:30:43.727Z,6.70
2019-02-20T15:33:11.598Z,6.58
2019-02-20T15:35:39.509Z,6.95
2019-02-20T15:38:07.341Z,6.53
2019-02-20T15:40:35.438Z,7.22
2019-02-20T15:43:03.371Z,8.33
2019-02-20T15:45:31.193Z,7.45
2019-02-20T15:47:59.031Z,6.90
2019-02-20T15:50:26.938Z,8.25
2019-02-20T15:52:54.832Z,7.62
2019-02-20T15:55:22.729Z,7.70
2019-02-20T15:57:50.615Z,7.45
2019-02-20T16:00:19.865Z,7.80
2019-02-20T16:02:47.732Z,7.85
2019-02-20T16:05:15.953Z,8.70
2019-02-20T16:07:43.862Z,8.28
2019-02-20T16:10:11.675Z,8.65
2019-02-20T16:12:39.501Z,8.15
2019-02-20T16:15:08.060Z,8.10
2019-02-20T16:17:35.954Z,10.43
2019-02-20T16:20:05.598Z,9.08
2019-02-20T16:22:33.659Z,8.98
2019-02-20T16:25:01.545Z,9.25
2019-02-20T16:27:29.487Z,9.00
2019-02-20T16:29:57.327Z,9.25
2019-02-20T16:32:25.189Z,9.30
2019-02-20T16:34:53.070Z,9.68
2019-02-20T16:37:21.755Z,12.10
2019-02-20T16:39:49.965Z,10.85
2019-02-20T16:42:17.862Z,10.50
2019-02-20T16:44:45.815Z,10.70
2019-02-20T16:47:13.677Z,9.08
2019-02-20T16:49:41.857Z,9.43
2019-02-20T16:52:09.815Z,10.13
2019-02-20T16:54:37.729Z,8.40
2019-02-20T16:57:06.013Z,8.43
2019-02-20T16:59:33.862Z,8.88
2019-02-20T17:02:01.850Z,8.65
2019-02-20T17:04:29.764Z,9.15
2019-02-20T17:06:57.675Z,8.53
2019-02-20T17:09:25.512Z,10.50
2019-02-20T17:11:53.448Z,10.60
2019-02-20T17:14:21.757Z,9.05
2019-02-20T17:16:49.542Z,10.08
2019-02-20T17:19:17.439Z,12.15
2019-02-20T17:21:46.036Z,11.95
2019-02-20T17:24:13.933Z,11.08
2019-02-20T17:26:42.092Z,12.73
2019-02-20T17:29:09.978Z,12.50
2019-02-20T17:31:38.394Z,16.80
2019-02-20T17:34:06.292Z,11.85
2019-02-20T17:36:34.205Z,16.00
2019-02-20T17:39:02.257Z,18.00
2019-02-20T17:41:30.180Z,20.45
2019-02-20T17:43:58.032Z,25.60
2019-02-20T17:46:26.061Z,19.00
2019-02-20T17:48:54.319Z,19.30
2019-02-20T17:51:22.213Z,13.40
2019-02-20T17:53:50.078Z,14.38
2019-02-20T17:56:17.927Z,18.40
2019-02-20T17:58:45.856Z,15.25
2019-02-20T18:01:16.429Z,15.60
2019-02-20T18:03:44.382Z,20.95
2019-02-20T18:06:12.384Z,13.40
2019-02-20T18:08:40.297Z,16.07
2019-02-20T18:11:08.392Z,19.07
2019-02-20T18:13:36.284Z,15.20
2019-02-20T18:16:04.431Z,14.40
2019-02-20T18:18:32.280Z,12.95
2019-02-20T18:21:00.260Z,13.60
2019-02-20T18:23:28.096Z,18.02
2019-02-20T18:25:56.054Z,29.82
2019-02-20T18:28:24.758Z,23.55
2019-02-20T18:30:52.886Z,20.85
2019-02-20T18:33:20.768Z,28.85
2019-02-20T18:35:48.650Z,31.85
2019-02-20T18:38:16.523Z,22.02
2019-02-20T18:40:44.414Z,18.90
2019-02-20T18:43:12.526Z,16.50
2019-02-20T18:45:40.433Z,13.78
2019-02-20T18:48:08.373Z,14.10
2019-02-20T18:50:36.262Z,13.03
2019-02-20T18:53:04.241Z,12.25
2019-02-20T18:55:32.098Z,14.07
2019-02-20T18:58:00.013Z,15.32
2019-02-20T19:00:28.095Z,20.57
2019-02-20T19:02:56.037Z,16.97
2019-02-20T19:05:24.003Z,19.40
2019-02-20T19:07:51.859Z,18.10
2019-02-20T19:10:26.427Z,17.00
2019-02-20T19:13:49.281Z,20.95
2019-02-20T19:17:33.808Z,18.52
2019-02-20T19:20:45.481Z,16.35
2019-02-20T19:24:20.591Z,18.90
2019-02-20T19:27:42.159Z,16.77
2019-02-20T19:31:19.372Z,15.60
2019-02-20T19:34:40.808Z,17.02
2019-02-20T19:38:20.706Z,16.12
2019-02-20T19:41:40.460Z,17.45
2019-02-20T19:45:21.445Z,18.73
2019-02-20T19:48:55.631Z,20.27
2019-02-20T19:52:36.287Z,20.97
2019-02-20T19:56:08.357Z,18.85
2019-02-20T19:59:48.043Z,21.62
2019-02-20T20:03:22.393Z,21.30
2019-02-20T20:07:08.680Z,19.95
2019-02-20T20:10:47.290Z,22.35
2019-02-20T20:13:55.474Z,20.97
2019-02-20T20:17:20.600Z,23.80
2019-02-20T20:20:19.647Z,20.00
2019-02-20T20:23:40.001Z,22.00
2019-02-20T20:27:20.023Z,20.00
2019-02-20T20:30:36.621Z,17.67
2019-02-20T20:33:42.243Z,19.70
2019-02-20T20:37:30.054Z,18.82
2019-02-20T20:40:39.814Z,22.65
2019-02-20T20:43:56.356Z,20.77
2019-02-20T20:47:27.235Z,16.17
2019-02-20T20:51:05.645Z,13.78
2019-02-20T20:54:36.251Z,14.80
2019-02-20T20:57:50.403Z,15.65
2019-02-20T21:01:11.700Z,16.07
2019-02-20T21:03:56.908Z,18.67
2019-02-20T21:07:05.343Z,16.45
2019-02-20T21:10:51.466Z,16.10
2019-02-20T21:14:32.876Z,17.10
2019-02-20T21:17:45.101Z,17.15
2019-02-20T21:21:00.845Z,17.87
2019-02-20T21:24:23.604Z,16.57
2019-02-20T21:27:56.822Z,17.87
2019-02-20T21:31:21.794Z,18.48
2019-02-20T21:34:36.582Z,17.07
2019-02-20T21:37:57.299Z,19.23
2019-02-20T21:41:25.937Z,21.45
2019-02-20T21:45:12.241Z,18.80
2019-02-20T21:48:22.561Z,17.50
2019-02-20T21:52:02.758Z,15.50
2019-02-20T21:55:15.823Z,13.90
2019-02-20T21:58:50.259Z,13.45
2019-02-20T22:02:22.338Z,13.85
2019-02-20T22:05:40.344Z,23.55
2019-02-20T22:09:36.508Z,20.60
2019-02-20T22:13:10.008Z,22.75
2019-02-20T22:16:17.320Z,21.90
2019-02-20T22:19:32.281Z,19.17
2019-02-20T22:22:55.722Z,19.32
2019-02-20T22:26:17.868Z,16.82
2019-02-20T22:29:35.789Z,16.25
2019-02-20T22:33:07.376Z,15.93
2019-02-20T22:36:44.758Z,14.98
2019-02-20T22:39:55.588Z,15.40
2019-02-20T22:43:05.409Z,14.98
2019-02-20T22:46:13.084Z,13.95
2019-02-20T22:49:39.903Z,12.93
2019-02-20T22:52:30.439Z,13.93
2019-02-20T22:55:54.108Z,13.05
2019-02-20T22:58:56.331Z,13.32
2019-02-20T23:02:15.102Z,14.07
2019-02-20T23:05:29.110Z,15.30
2019-02-20T23:08:37.508Z,14.55
2019-02-20T23:11:38.041Z,13.85
2019-02-20T23:14:24.449Z,13.15
2019-02-20T23:16:52.340Z,13.15
2019-02-20T23:19:20.264Z,14.50
2019-02-20T23:21:48.122Z,15.80
2019-02-20T23:24:16.081Z,15.15
2019-02-20T23:26:44.018Z,14.03
2019-02-20T23:29:11.857Z,14.40
2019-02-20T23:31:39.752Z,14.15
2019-02-20T23:34:07.559Z,13.68
2019-02-20T23:36:35.482Z,12.50
2019-02-20T23:39:05.231Z,12.88
2019-02-20T23:41:33.074Z,13.53
2019-02-20T23:44:00.912Z,13.78
2019-02-20T23:46:28.734Z,12.88
2019-02-20T23:48:56.583Z,13.50
2019-02-20T23:51:24.497Z,14.30
2019-02-20T23:53:52.399Z,13.90
2019-02-20T23:56:20.247Z,13.78
2019-02-20T23:58:48.058Z,15.15
